Terminal Aerodrome Forecast
Issued by NWS

Home | Current Version | Previous Version | Text Only | Print | Product List | Glossary On
Versions: 1 2 3 4 5 6 7 8 9 10 11 12
000
FTUS44 KHGX 301720
TAFCXO
TAF
KCXO 301720Z 3018/0118 VRB04KT P6SM SKC
      TEMPO 0110/0113 5SM BR=

USA.gov is the U.S. government's official web portal to all federal, state and local government web resources and services.